Accueil
METAR-TAF:

METAR-TAF

Aéroports :

Aéroport de Saint-Brieuc Armor

Saint-Brieuc, France

latitude: 48-32N, longitude: 002-51W, altitude: 138 m

Observation

Le bulletin a été fait il y a 7 heures et 21 minutes, à 21:00 UTC
Vent calme
Température 17°C
Humidité 88%
Pression 1026 hPa
Visibilité 10 km ou plus
Nuages fragmentés à une hauteur de 1500 ft
Ciel couvert à une hauteur de 2300 ft

METAR: LFRT 182100Z AUTO 00000KT 9999 BKN015 OVC023 17/15 Q1026

Heure: 06:21 (04:21 UTC)


TAF: absent

Observations et prévisions météorologiques de plus de 4000 aéroports (messages METAR et TAF).

Les stations disponibles sont représentées par des disques jaunes et rouges sur la carte.

Passer la souris dessus pour voir le nom de la station.

Cliquer dessus pour voir les observations et prévisions météorologiques.

Pour changer de carte: cliquez sur les boutons verts avec une croix noire pour zoomer, sur le bouton vert avec un tiret pour effectuer un zoom arrière, ou sur les flèches vertes pour les cartes adjacentes.


METAR-TAF: